createdAt,value
2018-06-23T00:00:03.549Z,0.00
2018-06-23T00:01:03.712Z,0.00
2018-06-23T00:02:03.893Z,0.00
2018-06-23T00:03:04.047Z,0.00
2018-06-23T00:04:04.219Z,0.00
2018-06-23T00:05:04.391Z,0.00
2018-06-23T00:06:04.583Z,0.00
2018-06-23T00:07:04.765Z,0.00
2018-06-23T00:08:04.912Z,0.00
2018-06-23T00:09:05.065Z,0.00
2018-06-23T00:10:05.249Z,0.00
2018-06-23T00:11:05.412Z,0.00
2018-06-23T00:12:05.570Z,0.00
2018-06-23T00:13:05.735Z,0.00
2018-06-23T00:14:05.910Z,0.00
2018-06-23T00:15:06.073Z,0.00
2018-06-23T00:16:06.253Z,0.00
2018-06-23T00:17:06.416Z,0.00
2018-06-23T00:18:06.590Z,0.00
2018-06-23T00:19:06.736Z,0.00
2018-06-23T00:20:06.898Z,0.00
2018-06-23T00:21:07.051Z,0.00
2018-06-23T00:22:07.211Z,0.00
2018-06-23T00:23:07.393Z,0.00
2018-06-23T00:24:07.562Z,0.00
2018-06-23T00:25:07.742Z,0.00
2018-06-23T00:26:07.902Z,0.00
2018-06-23T00:27:08.087Z,0.00
2018-06-23T00:28:08.238Z,0.00
2018-06-23T00:29:08.407Z,0.00
2018-06-23T00:30:08.585Z,0.00
2018-06-23T00:31:08.745Z,0.00
2018-06-23T00:32:08.944Z,0.00
2018-06-23T00:33:09.097Z,0.00
2018-06-23T00:34:09.287Z,0.00
2018-06-23T00:35:09.459Z,0.00
2018-06-23T00:36:09.627Z,0.00
2018-06-23T00:37:09.769Z,0.00
2018-06-23T00:38:09.941Z,0.00
2018-06-23T00:39:10.106Z,0.00
2018-06-23T00:40:10.290Z,0.00
2018-06-23T00:41:10.433Z,0.00
2018-06-23T00:42:10.616Z,0.00
2018-06-23T00:43:10.784Z,0.00
2018-06-23T00:44:10.961Z,0.00
2018-06-23T00:45:11.149Z,0.00
2018-06-23T00:46:11.329Z,0.00
2018-06-23T00:47:11.466Z,0.00
2018-06-23T00:48:11.634Z,0.00
2018-06-23T00:49:11.813Z,0.00
2018-06-23T00:50:11.968Z,0.00
2018-06-23T00:51:12.147Z,0.00
2018-06-23T00:52:12.330Z,0.00
2018-06-23T00:53:12.480Z,0.00
2018-06-23T00:54:13.657Z,0.00
2018-06-23T00:55:12.866Z,0.00
2018-06-23T00:56:13.032Z,0.00
2018-06-23T00:57:13.195Z,0.00
2018-06-23T00:58:13.371Z,0.00
2018-06-23T00:59:13.884Z,0.00
2018-06-23T01:00:13.715Z,0.00
2018-06-23T01:01:13.901Z,0.00
2018-06-23T01:02:14.099Z,0.00
2018-06-23T01:03:14.468Z,0.00
2018-06-23T01:04:14.387Z,0.00
2018-06-23T01:05:14.578Z,0.00
2018-06-23T01:06:14.739Z,0.00
2018-06-23T01:07:14.943Z,0.00
2018-06-23T01:08:15.085Z,0.00
2018-06-23T01:09:15.244Z,0.00
2018-06-23T01:10:15.430Z,0.00
2018-06-23T01:11:15.609Z,0.00
2018-06-23T01:12:15.778Z,0.00
2018-06-23T01:13:15.985Z,0.00
2018-06-23T01:14:16.131Z,0.00
2018-06-23T01:15:16.299Z,0.00
2018-06-23T01:16:16.455Z,0.00
2018-06-23T01:17:16.639Z,0.00
2018-06-23T01:18:16.825Z,0.00
2018-06-23T01:19:16.963Z,0.00
2018-06-23T01:20:17.129Z,0.00
2018-06-23T01:21:17.292Z,0.00
2018-06-23T01:22:17.446Z,0.00
2018-06-23T01:23:17.630Z,0.00
2018-06-23T01:24:17.797Z,0.00
2018-06-23T01:25:17.938Z,0.00
2018-06-23T01:26:18.114Z,0.00
2018-06-23T01:27:18.296Z,0.00
2018-06-23T01:28:18.444Z,0.00
2018-06-23T01:29:18.637Z,0.00
2018-06-23T01:30:18.801Z,0.00
2018-06-23T01:31:18.965Z,0.00
2018-06-23T01:32:19.164Z,0.00
2018-06-23T01:33:19.302Z,0.00
2018-06-23T01:34:19.464Z,0.00
2018-06-23T01:35:19.623Z,0.00
2018-06-23T01:36:19.827Z,0.00
2018-06-23T01:37:19.963Z,0.00
2018-06-23T01:38:20.144Z,0.00
2018-06-23T01:39:20.326Z,0.00
2018-06-23T01:40:20.475Z,0.00
2018-06-23T01:41:20.659Z,0.00
2018-06-23T01:42:20.828Z,0.00
2018-06-23T01:43:21.022Z,0.00
2018-06-23T01:44:21.152Z,0.00
2018-06-23T01:45:21.322Z,0.00
2018-06-23T01:46:21.508Z,0.00
2018-06-23T01:47:21.651Z,0.00
2018-06-23T01:48:21.836Z,0.00
2018-06-23T01:49:21.994Z,0.00
2018-06-23T01:50:22.156Z,0.00
2018-06-23T01:51:22.329Z,0.00
2018-06-23T01:52:22.503Z,0.00
2018-06-23T01:53:22.675Z,0.00
2018-06-23T01:54:22.827Z,0.00
2018-06-23T01:55:22.994Z,0.00
2018-06-23T01:56:23.178Z,0.00
2018-06-23T01:57:23.345Z,0.00
2018-06-23T01:58:23.520Z,0.00
2018-06-23T01:59:23.676Z,0.00
2018-06-23T02:00:23.843Z,0.00
2018-06-23T02:01:24.006Z,0.00
2018-06-23T02:02:24.173Z,0.00
2018-06-23T02:03:24.333Z,0.00
2018-06-23T02:04:24.502Z,0.00
2018-06-23T02:05:24.670Z,0.00
2018-06-23T02:06:24.836Z,0.00
2018-06-23T02:07:25.013Z,0.00
2018-06-23T02:08:25.182Z,0.00
2018-06-23T02:09:25.343Z,0.00
2018-06-23T02:10:25.510Z,0.00
2018-06-23T02:11:25.679Z,0.00
2018-06-23T02:12:25.838Z,0.00
2018-06-23T02:13:26.017Z,0.00
2018-06-23T02:14:26.185Z,0.00
2018-06-23T02:15:26.353Z,0.00
2018-06-23T02:16:26.517Z,0.00
2018-06-23T02:17:26.683Z,0.00
2018-06-23T02:18:26.857Z,0.00
2018-06-23T02:19:27.030Z,0.00
2018-06-23T02:20:27.212Z,0.00
2018-06-23T02:21:27.362Z,0.00
2018-06-23T02:22:27.516Z,0.00
2018-06-23T02:23:27.695Z,0.00
2018-06-23T02:25:28.053Z,0.00
2018-06-23T02:26:28.233Z,0.00
2018-06-23T02:27:28.420Z,0.00
2018-06-23T02:28:28.600Z,0.00
2018-06-23T02:29:28.781Z,0.00
2018-06-23T02:30:28.961Z,0.00
2018-06-23T02:31:29.144Z,0.00
2018-06-23T02:32:29.322Z,0.00
2018-06-23T02:33:29.493Z,0.00
2018-06-23T02:34:29.919Z,0.00
2018-06-23T02:35:29.837Z,0.00
2018-06-23T02:36:30.025Z,0.00
2018-06-23T02:37:30.187Z,0.00
2018-06-23T02:38:30.370Z,0.00
2018-06-23T02:39:30.579Z,0.00
2018-06-23T02:40:30.702Z,0.00
2018-06-23T02:41:30.888Z,0.00
2018-06-23T02:42:31.073Z,0.00
2018-06-23T02:43:31.230Z,0.00
2018-06-23T02:44:31.401Z,0.00
2018-06-23T02:45:31.575Z,0.00
2018-06-23T02:46:31.754Z,0.00
2018-06-23T02:47:31.931Z,0.00
2018-06-23T02:48:32.111Z,0.00
2018-06-23T02:49:32.295Z,0.00
2018-06-23T02:50:32.476Z,0.00
2018-06-23T02:51:32.654Z,0.00
2018-06-23T02:52:32.840Z,0.00
2018-06-23T02:53:33.007Z,0.00
2018-06-23T02:54:33.190Z,0.00
2018-06-23T02:55:33.369Z,0.00
2018-06-23T02:56:33.543Z,0.00
2018-06-23T02:57:33.726Z,0.00
2018-06-23T02:58:33.907Z,0.00
2018-06-23T02:59:34.084Z,0.00
2018-06-23T03:00:34.276Z,0.00
2018-06-23T03:01:34.452Z,0.00
2018-06-23T03:02:34.641Z,0.00
2018-06-23T03:03:34.816Z,0.00
2018-06-23T03:04:34.984Z,0.00
2018-06-23T03:05:35.174Z,0.00
2018-06-23T03:06:35.350Z,0.00
2018-06-23T03:07:35.521Z,0.00
2018-06-23T03:08:35.701Z,0.00
2018-06-23T03:09:35.873Z,0.00
2018-06-23T03:10:36.053Z,5.63
2018-06-23T03:11:36.236Z,5.63
2018-06-23T03:12:36.401Z,5.63
2018-06-23T03:13:36.584Z,0.00
2018-06-23T03:14:36.757Z,0.00
2018-06-23T03:15:36.936Z,0.00
2018-06-23T03:16:37.115Z,0.00
2018-06-23T03:17:37.296Z,0.00
2018-06-23T03:18:37.483Z,0.00
2018-06-23T03:19:37.650Z,0.00
2018-06-23T03:20:37.849Z,0.00
2018-06-23T03:21:37.995Z,0.00
2018-06-23T03:22:38.168Z,0.00
2018-06-23T03:23:38.367Z,0.00
2018-06-23T03:24:38.526Z,5.63
2018-06-23T03:25:38.737Z,5.63
2018-06-23T03:26:38.878Z,5.63
2018-06-23T03:27:39.044Z,5.63
2018-06-23T03:28:39.226Z,11.25
2018-06-23T03:29:39.413Z,11.25
2018-06-23T03:30:40.080Z,11.25
2018-06-23T03:31:39.742Z,11.25
2018-06-23T03:32:39.917Z,16.88
2018-06-23T03:33:40.086Z,16.88
2018-06-23T03:34:40.267Z,22.50
2018-06-23T03:35:40.439Z,28.13
2018-06-23T03:36:40.607Z,28.13
2018-06-23T03:37:40.789Z,28.13
2018-06-23T03:38:40.963Z,28.13
2018-06-23T03:39:41.137Z,28.13
2018-06-23T03:40:41.316Z,28.13
2018-06-23T03:41:41.501Z,22.50
2018-06-23T03:42:41.686Z,22.50
2018-06-23T03:43:41.868Z,22.50
2018-06-23T03:44:42.047Z,16.88
2018-06-23T03:45:42.225Z,16.88
2018-06-23T03:46:42.401Z,16.88
2018-06-23T03:47:42.578Z,16.88
2018-06-23T03:48:42.748Z,16.88
2018-06-23T03:49:42.919Z,22.50
2018-06-23T03:50:43.116Z,22.50
2018-06-23T03:51:43.281Z,22.50
2018-06-23T03:52:43.445Z,28.13
2018-06-23T03:53:43.618Z,33.75
2018-06-23T03:54:43.791Z,39.38
2018-06-23T03:55:43.966Z,50.63
2018-06-23T03:56:44.142Z,45.00
2018-06-23T03:57:44.309Z,45.00
2018-06-23T03:58:44.481Z,45.00
2018-06-23T03:59:44.665Z,45.00
2018-06-23T04:00:44.845Z,50.63
2018-06-23T04:01:45.024Z,50.63
2018-06-23T04:02:45.203Z,56.25
2018-06-23T04:03:45.377Z,61.88
2018-06-23T04:04:45.560Z,61.88
2018-06-23T04:05:45.735Z,50.63
2018-06-23T04:06:45.911Z,50.63
2018-06-23T04:07:46.078Z,45.00
2018-06-23T04:08:46.260Z,45.00
2018-06-23T04:09:46.448Z,39.38
2018-06-23T04:10:46.634Z,39.38
2018-06-23T04:11:46.807Z,39.38
2018-06-23T04:12:46.967Z,45.00
2018-06-23T04:13:47.197Z,45.00
2018-06-23T04:14:47.358Z,39.38
2018-06-23T04:15:47.509Z,33.75
2018-06-23T04:16:47.740Z,39.38
2018-06-23T04:17:47.889Z,39.38
2018-06-23T04:18:48.040Z,39.38
2018-06-23T04:19:48.195Z,39.38
2018-06-23T04:20:48.622Z,39.38
2018-06-23T04:21:48.524Z,50.63
2018-06-23T04:22:48.681Z,61.88
2018-06-23T04:23:48.858Z,67.50
2018-06-23T04:24:49.019Z,61.88
2018-06-23T04:25:49.204Z,56.25
2018-06-23T04:26:49.386Z,50.63
2018-06-23T04:27:49.529Z,56.25
2018-06-23T04:28:49.710Z,56.25
2018-06-23T04:29:49.890Z,61.88
2018-06-23T04:30:50.064Z,61.88
2018-06-23T04:31:50.248Z,56.25
2018-06-23T04:32:50.422Z,61.88
2018-06-23T04:33:50.606Z,61.88
2018-06-23T04:34:50.776Z,56.25
2018-06-23T04:35:50.954Z,56.25
2018-06-23T04:36:51.124Z,61.88
2018-06-23T04:37:51.305Z,61.88
2018-06-23T04:38:51.486Z,67.50
2018-06-23T04:39:51.664Z,67.50
2018-06-23T04:40:51.841Z,67.50
2018-06-23T04:41:52.025Z,67.50
2018-06-23T04:42:52.201Z,61.88
2018-06-23T04:43:52.373Z,67.50
2018-06-23T04:44:52.543Z,78.75
2018-06-23T04:45:52.717Z,84.38
2018-06-23T04:46:52.896Z,90.00
2018-06-23T04:47:53.081Z,95.63
2018-06-23T04:48:53.497Z,112.50
2018-06-23T04:49:53.439Z,112.50
2018-06-23T04:50:53.608Z,106.88
2018-06-23T04:52:53.968Z,84.38
2018-06-23T04:53:54.147Z,101.25
2018-06-23T04:54:54.322Z,101.25
2018-06-23T04:55:54.490Z,95.63
2018-06-23T04:56:54.670Z,95.63
2018-06-23T04:57:54.852Z,101.25
2018-06-23T04:58:55.042Z,95.63
2018-06-23T04:59:55.225Z,95.63
2018-06-23T05:00:55.400Z,90.00
2018-06-23T05:01:55.583Z,84.38
2018-06-23T05:02:55.755Z,90.00
2018-06-23T05:03:55.930Z,95.63
2018-06-23T05:04:56.116Z,95.63
2018-06-23T05:05:56.274Z,101.25
2018-06-23T05:06:56.453Z,101.25
2018-06-23T05:07:56.630Z,118.13
2018-06-23T05:08:56.813Z,135.00
2018-06-23T05:09:56.986Z,140.63
2018-06-23T05:10:57.163Z,140.63
2018-06-23T05:11:57.340Z,135.00
2018-06-23T05:12:57.521Z,129.38
2018-06-23T05:13:57.700Z,123.75
2018-06-23T05:14:57.893Z,112.50
2018-06-23T05:15:58.073Z,106.88
2018-06-23T05:16:58.255Z,101.25
2018-06-23T05:17:58.418Z,106.88
2018-06-23T05:18:58.598Z,112.50
2018-06-23T05:19:58.772Z,118.13
2018-06-23T05:20:58.958Z,129.38
2018-06-23T05:21:59.121Z,129.38
2018-06-23T05:22:59.311Z,140.63
2018-06-23T05:23:59.495Z,146.25
2018-06-23T05:24:59.669Z,157.50
2018-06-23T05:25:59.897Z,163.13
2018-06-23T05:27:00.038Z,163.13
2018-06-23T05:28:00.214Z,180.00
2018-06-23T05:29:00.394Z,168.75
2018-06-23T05:30:00.573Z,174.38
2018-06-23T05:31:00.760Z,191.25
2018-06-23T05:32:00.940Z,202.50
2018-06-23T05:33:01.119Z,241.88
2018-06-23T05:34:01.300Z,343.13
2018-06-23T05:35:01.490Z,382.50
2018-06-23T05:36:01.666Z,433.13
2018-06-23T05:37:01.838Z,461.25
2018-06-23T05:38:02.026Z,489.38
2018-06-23T05:39:02.201Z,472.50
2018-06-23T05:40:02.385Z,450.00
2018-06-23T05:41:02.560Z,478.13
2018-06-23T05:42:02.744Z,483.75
2018-06-23T05:43:02.921Z,433.13
2018-06-23T05:44:03.105Z,388.13
2018-06-23T05:45:03.280Z,399.38
2018-06-23T05:46:03.465Z,376.88
2018-06-23T05:47:03.639Z,348.75
2018-06-23T05:48:03.815Z,326.25
2018-06-23T05:49:04.001Z,315.00
2018-06-23T05:50:04.181Z,315.00
2018-06-23T05:51:04.380Z,320.63
2018-06-23T05:52:04.538Z,326.25
2018-06-23T05:53:04.720Z,337.50
2018-06-23T05:54:04.890Z,315.00
2018-06-23T05:55:05.047Z,320.63
2018-06-23T05:56:05.224Z,326.25
2018-06-23T05:57:05.405Z,354.38
2018-06-23T05:58:05.579Z,399.38
2018-06-23T05:59:05.761Z,483.75
2018-06-23T06:00:05.940Z,601.88
2018-06-23T06:01:06.134Z,815.63
2018-06-23T06:02:06.298Z,3976.88
2018-06-23T06:03:06.478Z,1715.63
2018-06-23T06:04:06.646Z,2441.25
2018-06-23T06:05:06.827Z,2581.88
2018-06-23T06:06:07.010Z,1738.13
2018-06-23T06:07:07.252Z,1237.50
2018-06-23T06:08:07.369Z,669.38
2018-06-23T06:09:07.559Z,528.75
2018-06-23T06:10:07.734Z,410.63
2018-06-23T06:11:07.927Z,281.25
2018-06-23T06:12:08.104Z,185.63
2018-06-23T06:13:08.292Z,157.50
2018-06-23T06:14:08.463Z,174.38
2018-06-23T06:15:08.641Z,196.88
2018-06-23T06:16:08.817Z,174.38
2018-06-23T06:17:09.001Z,146.25
2018-06-23T06:18:09.186Z,135.00
2018-06-23T06:19:09.369Z,135.00
2018-06-23T06:20:09.557Z,129.38
2018-06-23T06:21:09.742Z,118.13
2018-06-23T06:22:09.921Z,106.88
2018-06-23T06:23:10.110Z,101.25
2018-06-23T06:24:10.305Z,106.88
2018-06-23T06:25:10.487Z,112.50
2018-06-23T06:26:10.662Z,123.75
2018-06-23T06:27:10.839Z,129.38
2018-06-23T06:28:11.030Z,135.00
2018-06-23T06:29:11.214Z,135.00
2018-06-23T06:30:11.402Z,140.63
2018-06-23T06:31:12.124Z,146.25
2018-06-23T06:32:11.733Z,146.25
2018-06-23T06:33:11.909Z,140.63
2018-06-23T06:34:12.088Z,140.63
2018-06-23T06:35:12.267Z,140.63
2018-06-23T06:36:12.448Z,140.63
2018-06-23T06:37:12.626Z,157.50
2018-06-23T06:38:12.806Z,185.63
2018-06-23T06:39:12.992Z,202.50
2018-06-23T06:40:13.234Z,202.50
2018-06-23T06:41:13.341Z,191.25
2018-06-23T06:42:13.530Z,180.00
2018-06-23T06:43:13.698Z,180.00
2018-06-23T06:44:13.867Z,185.63
2018-06-23T06:45:14.060Z,196.88
2018-06-23T06:46:14.233Z,196.88
2018-06-23T06:47:14.417Z,185.63
2018-06-23T06:48:14.595Z,168.75
2018-06-23T06:49:14.766Z,174.38
2018-06-23T06:50:14.924Z,191.25
2018-06-23T06:51:15.116Z,196.88
2018-06-23T06:52:15.297Z,208.13
2018-06-23T06:53:15.466Z,225.00
2018-06-23T06:54:15.615Z,247.50
2018-06-23T06:55:15.789Z,264.38
2018-06-23T06:56:15.963Z,258.75
2018-06-23T06:57:16.210Z,225.00
2018-06-23T06:58:16.286Z,208.13
2018-06-23T06:59:16.469Z,208.13
2018-06-23T07:00:16.659Z,225.00
2018-06-23T07:01:16.820Z,225.00
2018-06-23T07:02:16.988Z,270.00
2018-06-23T07:03:17.173Z,270.00
2018-06-23T07:04:17.339Z,230.63
2018-06-23T07:05:17.522Z,208.13
2018-06-23T07:06:17.692Z,196.88
2018-06-23T07:07:17.858Z,196.88
2018-06-23T07:08:18.040Z,219.38
2018-06-23T07:09:18.216Z,258.75
2018-06-23T07:10:18.379Z,360.00
2018-06-23T07:11:18.556Z,438.75
2018-06-23T07:12:18.736Z,371.25
2018-06-23T07:13:18.913Z,303.75
2018-06-23T07:14:19.102Z,292.50
2018-06-23T07:15:19.286Z,298.13
2018-06-23T07:16:19.465Z,275.63
2018-06-23T07:17:19.664Z,264.38
2018-06-23T07:18:19.810Z,275.63
2018-06-23T07:19:19.966Z,264.38
2018-06-23T07:20:20.166Z,258.75
2018-06-23T07:21:20.337Z,241.88
2018-06-23T07:22:20.491Z,230.63
2018-06-23T07:23:20.661Z,208.13
2018-06-23T07:24:20.849Z,191.25
2018-06-23T07:25:21.029Z,174.38
2018-06-23T07:26:21.219Z,151.88
2018-06-23T07:27:21.597Z,140.63
2018-06-23T07:28:21.529Z,135.00
2018-06-23T07:29:21.715Z,129.38
2018-06-23T07:30:21.894Z,129.38
2018-06-23T07:31:22.074Z,135.00
2018-06-23T07:32:22.273Z,135.00
2018-06-23T07:33:22.413Z,129.38
2018-06-23T07:34:22.695Z,118.13
2018-06-23T07:35:22.773Z,112.50
2018-06-23T07:36:22.965Z,106.88
2018-06-23T07:37:23.111Z,112.50
2018-06-23T07:38:23.283Z,112.50
2018-06-23T07:39:23.458Z,112.50
2018-06-23T07:41:23.804Z,106.88
2018-06-23T07:43:24.160Z,112.50
2018-06-23T07:44:24.343Z,112.50
2018-06-23T07:45:24.528Z,106.88
2018-06-23T07:46:24.698Z,106.88
2018-06-23T07:47:24.881Z,112.50
2018-06-23T07:48:25.063Z,118.13
2018-06-23T07:49:25.243Z,129.38
2018-06-23T07:50:25.425Z,140.63
2018-06-23T07:51:25.602Z,140.63
2018-06-23T07:52:25.809Z,140.63
2018-06-23T07:53:25.973Z,140.63
2018-06-23T07:54:26.155Z,135.00
2018-06-23T07:55:26.341Z,123.75
2018-06-23T07:56:26.516Z,123.75
2018-06-23T07:57:26.725Z,129.38
2018-06-23T07:58:26.860Z,135.00
2018-06-23T07:59:27.043Z,135.00
2018-06-23T08:00:27.234Z,140.63
2018-06-23T08:01:27.432Z,146.25
2018-06-23T08:02:27.590Z,146.25
2018-06-23T08:03:27.765Z,146.25
2018-06-23T08:04:27.953Z,140.63
2018-06-23T08:05:28.132Z,123.75
2018-06-23T08:06:28.316Z,118.13
2018-06-23T08:07:28.499Z,112.50
2018-06-23T08:08:28.683Z,106.88
2018-06-23T08:09:28.869Z,106.88
2018-06-23T08:10:29.048Z,118.13
2018-06-23T08:11:30.226Z,129.38
2018-06-23T08:12:29.418Z,135.00
2018-06-23T08:13:29.597Z,129.38
2018-06-23T08:14:37.400Z,123.75
2018-06-23T08:15:29.947Z,118.13
2018-06-23T08:16:30.134Z,118.13
2018-06-23T08:17:30.312Z,123.75
2018-06-23T08:18:30.503Z,135.00
2018-06-23T08:19:30.670Z,146.25
2018-06-23T08:20:30.851Z,140.63
2018-06-23T08:21:31.038Z,135.00
2018-06-23T08:22:31.215Z,135.00
2018-06-23T08:23:31.383Z,135.00
2018-06-23T08:24:31.545Z,135.00
2018-06-23T08:25:31.731Z,135.00
2018-06-23T08:26:32.049Z,135.00
2018-06-23T08:27:32.081Z,146.25
2018-06-23T08:28:32.256Z,163.13
2018-06-23T08:29:32.448Z,185.63
2018-06-23T08:30:32.618Z,202.50
2018-06-23T08:31:32.791Z,213.75
2018-06-23T08:32:32.987Z,225.00
2018-06-23T08:33:33.151Z,230.63
2018-06-23T08:34:33.326Z,230.63
2018-06-23T08:35:33.482Z,225.00
2018-06-23T08:36:33.641Z,225.00
2018-06-23T08:37:33.821Z,230.63
2018-06-23T08:38:34.002Z,241.88
2018-06-23T08:39:34.164Z,258.75
2018-06-23T08:40:34.332Z,247.50
2018-06-23T08:41:34.509Z,247.50
2018-06-23T08:42:34.676Z,253.13
2018-06-23T08:43:34.857Z,258.75
2018-06-23T08:44:35.003Z,258.75
2018-06-23T08:45:35.176Z,247.50
2018-06-23T08:46:35.351Z,230.63
2018-06-23T08:47:35.527Z,213.75
2018-06-23T08:48:35.707Z,196.88
2018-06-23T08:49:35.879Z,191.25
2018-06-23T08:50:36.065Z,185.63
2018-06-23T08:51:36.266Z,185.63
2018-06-23T08:52:36.413Z,185.63
2018-06-23T08:53:36.593Z,174.38
2018-06-23T08:54:36.765Z,174.38
2018-06-23T08:55:36.943Z,180.00
2018-06-23T08:56:37.099Z,191.25
2018-06-23T08:57:37.284Z,202.50
2018-06-23T08:58:37.452Z,202.50
2018-06-23T08:59:37.624Z,208.13
2018-06-23T09:00:37.806Z,213.75
2018-06-23T09:01:37.974Z,219.38
2018-06-23T09:02:38.177Z,219.38
2018-06-23T09:03:38.372Z,213.75
2018-06-23T09:04:38.551Z,213.75
2018-06-23T09:05:38.703Z,213.75
2018-06-23T09:06:38.885Z,208.13
2018-06-23T09:07:39.064Z,213.75
2018-06-23T09:08:39.250Z,230.63
2018-06-23T09:09:39.425Z,230.63
2018-06-23T09:10:39.640Z,213.75
2018-06-23T09:11:39.839Z,202.50
2018-06-23T09:12:39.999Z,202.50
2018-06-23T09:13:40.195Z,202.50
2018-06-23T09:14:40.357Z,202.50
2018-06-23T09:15:40.535Z,196.88
2018-06-23T09:16:40.702Z,202.50
2018-06-23T09:17:40.853Z,208.13
2018-06-23T09:18:41.024Z,213.75
2018-06-23T09:19:41.207Z,219.38
2018-06-23T09:20:41.407Z,236.25
2018-06-23T09:21:41.576Z,236.25
2018-06-23T09:22:41.766Z,225.00
2018-06-23T09:23:41.875Z,208.13
2018-06-23T09:24:42.057Z,202.50
2018-06-23T09:25:42.232Z,196.88
2018-06-23T09:26:42.402Z,191.25
2018-06-23T09:27:42.564Z,185.63
2018-06-23T09:28:44.967Z,180.00
2018-06-23T09:29:42.899Z,174.38
2018-06-23T09:30:43.128Z,168.75
2018-06-23T09:31:43.235Z,157.50
2018-06-23T09:32:43.417Z,151.88
2018-06-23T09:33:43.616Z,151.88
2018-06-23T09:34:44.047Z,151.88
2018-06-23T09:35:43.992Z,157.50
2018-06-23T09:36:44.181Z,146.25
2018-06-23T09:37:44.345Z,140.63
2018-06-23T09:38:44.510Z,140.63
2018-06-23T09:39:44.686Z,135.00
2018-06-23T09:40:44.856Z,123.75
2018-06-23T09:41:45.028Z,112.50
2018-06-23T09:42:45.201Z,106.88
2018-06-23T09:43:45.370Z,101.25
2018-06-23T09:44:45.736Z,95.63
2018-06-23T09:45:45.759Z,101.25
2018-06-23T09:46:45.888Z,106.88
2018-06-23T09:47:46.088Z,112.50
2018-06-23T09:48:46.269Z,112.50
2018-06-23T09:49:46.446Z,112.50
2018-06-23T09:50:46.612Z,112.50
2018-06-23T09:51:46.789Z,112.50
2018-06-23T09:52:46.967Z,112.50
2018-06-23T09:53:47.124Z,112.50
2018-06-23T09:54:47.292Z,112.50
2018-06-23T09:55:47.497Z,112.50
2018-06-23T09:56:47.638Z,118.13
2018-06-23T09:57:47.928Z,118.13
2018-06-23T09:58:48.036Z,118.13
2018-06-23T09:59:48.208Z,112.50
2018-06-23T10:00:48.382Z,112.50
2018-06-23T10:01:48.545Z,118.13
2018-06-23T10:02:48.735Z,118.13
2018-06-23T10:03:48.910Z,112.50
2018-06-23T10:04:49.088Z,112.50
2018-06-23T10:05:49.289Z,106.88
2018-06-23T10:06:49.434Z,106.88
2018-06-23T10:07:49.593Z,101.25
2018-06-23T10:08:49.755Z,95.63
2018-06-23T10:09:49.937Z,90.00
2018-06-23T10:10:50.109Z,90.00
2018-06-23T10:11:50.281Z,84.38
2018-06-23T10:12:50.457Z,90.00
2018-06-23T10:13:50.637Z,90.00
2018-06-23T10:14:50.816Z,95.63
2018-06-23T10:15:50.988Z,95.63
2018-06-23T10:16:51.172Z,95.63
2018-06-23T10:17:51.343Z,101.25
2018-06-23T10:18:51.524Z,112.50
2018-06-23T10:19:51.701Z,118.13
2018-06-23T10:20:51.884Z,112.50
2018-06-23T10:21:52.076Z,112.50
2018-06-23T10:22:52.249Z,123.75
2018-06-23T10:23:52.429Z,118.13
2018-06-23T10:24:52.597Z,118.13
2018-06-23T10:25:52.804Z,118.13
2018-06-23T10:26:52.966Z,118.13
2018-06-23T10:27:53.144Z,112.50
2018-06-23T10:28:53.316Z,118.13
2018-06-23T10:29:53.481Z,118.13
2018-06-23T10:30:53.651Z,112.50
2018-06-23T10:31:54.101Z,112.50
2018-06-23T10:32:54.067Z,118.13
2018-06-23T10:33:54.199Z,123.75
2018-06-23T10:34:54.367Z,118.13
2018-06-23T10:35:54.543Z,106.88
2018-06-23T10:36:54.720Z,101.25
2018-06-23T10:37:54.901Z,106.88
2018-06-23T10:38:55.071Z,118.13
2018-06-23T10:39:55.245Z,112.50
2018-06-23T10:40:55.443Z,112.50
2018-06-23T10:41:55.594Z,118.13
2018-06-23T10:42:55.772Z,118.13
2018-06-23T10:43:55.951Z,123.75
2018-06-23T10:44:56.158Z,123.75
2018-06-23T10:45:56.309Z,118.13
2018-06-23T10:46:56.482Z,106.88
2018-06-23T10:47:56.670Z,101.25
2018-06-23T10:48:56.837Z,106.88
2018-06-23T10:49:57.010Z,123.75
2018-06-23T10:50:57.210Z,118.13
2018-06-23T10:51:57.386Z,112.50
2018-06-23T10:52:57.528Z,118.13
2018-06-23T10:53:57.689Z,123.75
2018-06-23T10:54:57.858Z,140.63
2018-06-23T10:55:58.038Z,174.38
2018-06-23T10:56:58.198Z,219.38
2018-06-23T10:57:58.398Z,247.50
2018-06-23T10:58:58.578Z,258.75
2018-06-23T10:59:58.748Z,236.25
2018-06-23T11:00:58.931Z,213.75
2018-06-23T11:01:59.095Z,213.75
2018-06-23T11:02:59.274Z,241.88
2018-06-23T11:04:59.790Z,337.50
2018-06-23T11:05:59.807Z,303.75
2018-06-23T11:06:59.974Z,275.63
2018-06-23T11:08:00.155Z,253.13
2018-06-23T11:09:00.324Z,236.25
2018-06-23T11:10:00.526Z,236.25
2018-06-23T11:11:00.674Z,230.63
2018-06-23T11:12:00.840Z,258.75
2018-06-23T11:13:01.011Z,315.00
2018-06-23T11:14:01.186Z,320.63
2018-06-23T11:15:01.356Z,292.50
2018-06-23T11:16:01.769Z,303.75
2018-06-23T11:17:01.714Z,331.88
2018-06-23T11:18:01.893Z,393.75
2018-06-23T11:19:02.051Z,444.38
2018-06-23T11:20:02.205Z,483.75
2018-06-23T11:21:02.365Z,489.38
2018-06-23T11:22:02.546Z,461.25
2018-06-23T11:23:02.711Z,416.25
2018-06-23T11:24:02.903Z,326.25
2018-06-23T11:25:03.081Z,253.13
2018-06-23T11:26:03.260Z,202.50
2018-06-23T11:27:03.437Z,191.25
2018-06-23T11:28:03.606Z,213.75
2018-06-23T11:29:03.781Z,202.50
2018-06-23T11:30:03.959Z,191.25
2018-06-23T11:31:04.100Z,185.63
2018-06-23T11:32:04.288Z,191.25
2018-06-23T11:33:04.434Z,208.13
2018-06-23T11:34:04.663Z,191.25
2018-06-23T11:35:04.844Z,157.50
2018-06-23T11:36:05.033Z,135.00
2018-06-23T11:37:05.255Z,118.13
2018-06-23T11:38:05.397Z,112.50
2018-06-23T11:39:05.537Z,135.00
2018-06-23T11:40:05.698Z,185.63
2018-06-23T11:41:05.870Z,213.75
2018-06-23T11:42:06.040Z,208.13
2018-06-23T11:43:06.230Z,208.13
2018-06-23T11:44:06.367Z,196.88
2018-06-23T11:45:06.552Z,185.63
2018-06-23T11:46:06.720Z,180.00
2018-06-23T11:47:06.914Z,185.63
2018-06-23T11:48:07.094Z,168.75
2018-06-23T11:49:07.255Z,151.88
2018-06-23T11:50:07.401Z,157.50
2018-06-23T11:51:07.586Z,180.00
2018-06-23T11:52:07.791Z,202.50
2018-06-23T11:53:08.026Z,225.00
2018-06-23T11:54:08.145Z,253.13
2018-06-23T11:55:08.308Z,275.63
2018-06-23T11:56:08.498Z,298.13
2018-06-23T11:57:08.640Z,303.75
2018-06-23T11:58:08.811Z,320.63
2018-06-23T11:59:09.007Z,326.25
2018-06-23T12:00:09.258Z,326.25
2018-06-23T12:01:09.357Z,337.50
2018-06-23T12:02:09.544Z,331.88
2018-06-23T12:03:09.721Z,331.88
2018-06-23T12:04:09.892Z,326.25
2018-06-23T12:05:10.082Z,326.25
2018-06-23T12:06:10.287Z,315.00
2018-06-23T12:07:10.443Z,303.75
2018-06-23T12:08:10.600Z,298.13
2018-06-23T12:09:10.847Z,292.50
2018-06-23T12:10:10.953Z,298.13
2018-06-23T12:11:11.112Z,303.75
2018-06-23T12:12:11.309Z,309.38
2018-06-23T12:13:11.492Z,315.00
2018-06-23T12:14:11.657Z,326.25
2018-06-23T12:15:11.846Z,326.25
2018-06-23T12:16:12.015Z,337.50
2018-06-23T12:17:12.188Z,354.38
2018-06-23T12:18:12.377Z,371.25
2018-06-23T12:19:12.546Z,388.13
2018-06-23T12:20:12.795Z,399.38
2018-06-23T12:21:12.896Z,416.25
2018-06-23T12:22:13.058Z,427.50
2018-06-23T12:23:13.234Z,438.75
2018-06-23T12:24:13.389Z,444.38
2018-06-23T12:25:13.570Z,455.63
2018-06-23T12:26:13.742Z,483.75
2018-06-23T12:27:13.915Z,399.38
2018-06-23T12:29:14.259Z,331.88
2018-06-23T12:30:14.441Z,286.88
2018-06-23T12:31:14.638Z,281.25
2018-06-23T12:32:14.790Z,286.88
2018-06-23T12:33:14.968Z,286.88
2018-06-23T12:34:15.148Z,286.88
2018-06-23T12:35:15.340Z,281.25
2018-06-23T12:36:15.501Z,281.25
2018-06-23T12:37:15.654Z,275.63
2018-06-23T12:38:16.241Z,270.00
2018-06-23T12:39:15.988Z,275.63
2018-06-23T12:40:16.205Z,275.63
2018-06-23T12:41:16.335Z,281.25
2018-06-23T12:42:16.496Z,281.25
2018-06-23T12:43:16.678Z,281.25
2018-06-23T12:44:16.833Z,275.63
2018-06-23T12:45:17.005Z,253.13
2018-06-23T12:46:17.162Z,219.38
2018-06-23T12:47:17.363Z,196.88
2018-06-23T12:48:17.505Z,185.63
2018-06-23T12:49:17.707Z,180.00
2018-06-23T12:50:17.841Z,168.75
2018-06-23T12:51:18.435Z,168.75
2018-06-23T12:52:18.212Z,174.38